createdAt,value
2023-04-17T00:01:04.187Z,11.57
2023-04-17T00:03:31.901Z,11.07
2023-04-17T00:05:58.567Z,10.70
2023-04-17T00:08:24.844Z,10.83
2023-04-17T00:10:57.005Z,11.00
2023-04-17T00:13:33.094Z,10.97
2023-04-17T00:15:59.376Z,10.63
2023-04-17T00:18:25.869Z,11.10
2023-04-17T00:20:52.376Z,11.57
2023-04-17T00:23:18.640Z,11.07
2023-04-17T00:25:44.927Z,11.10
2023-04-17T00:28:11.271Z,10.50
2023-04-17T00:30:37.524Z,11.60
2023-04-17T00:33:03.795Z,11.07
2023-04-17T00:35:30.097Z,11.53
2023-04-17T00:37:56.337Z,12.03
2023-04-17T00:40:22.626Z,11.03
2023-04-17T00:42:52.945Z,12.10
2023-04-17T00:45:20.287Z,12.37
2023-04-17T00:47:47.421Z,11.40
2023-04-17T00:50:13.722Z,11.67
2023-04-17T00:52:40.080Z,12.90
2023-04-17T00:55:06.757Z,12.03
2023-04-17T00:57:34.004Z,12.33
2023-04-17T01:00:00.343Z,11.77
2023-04-17T01:02:27.043Z,11.80
2023-04-17T01:04:53.526Z,12.33
2023-04-17T01:07:19.919Z,12.03
2023-04-17T01:09:46.268Z,12.83
2023-04-17T01:12:19.866Z,11.97
2023-04-17T01:14:46.305Z,13.13
2023-04-17T01:17:15.691Z,12.47
2023-04-17T01:19:42.221Z,11.73
2023-04-17T01:22:08.626Z,11.77
2023-04-17T01:24:34.880Z,11.63
2023-04-17T01:27:01.479Z,11.70
2023-04-17T01:29:27.778Z,11.43
2023-04-17T01:31:54.129Z,11.23
2023-04-17T01:34:20.530Z,11.50
2023-04-17T01:36:46.804Z,11.97
2023-04-17T01:39:13.382Z,11.50
2023-04-17T01:41:39.807Z,11.23
2023-04-17T01:44:06.274Z,11.67
2023-04-17T01:46:32.540Z,11.83
2023-04-17T01:48:58.824Z,12.47
2023-04-17T01:51:25.128Z,12.87
2023-04-17T01:53:51.416Z,11.53
2023-04-17T01:56:18.016Z,12.13
2023-04-17T01:58:44.334Z,11.30
2023-04-17T02:01:10.707Z,12.40
2023-04-17T02:03:37.322Z,12.57
2023-04-17T02:06:03.765Z,12.33
2023-04-17T02:08:30.081Z,12.13
2023-04-17T02:10:56.454Z,12.13
2023-04-17T02:13:22.718Z,12.47
2023-04-17T02:15:48.994Z,12.77
2023-04-17T02:18:15.512Z,12.67
2023-04-17T02:20:41.897Z,12.40
2023-04-17T02:23:08.212Z,12.43
2023-04-17T02:25:34.652Z,12.37
2023-04-17T02:28:01.197Z,13.43
2023-04-17T02:30:27.685Z,12.70
2023-04-17T02:32:57.216Z,12.70
2023-04-17T02:35:24.468Z,13.13
2023-04-17T02:37:50.777Z,12.33
2023-04-17T02:40:17.194Z,13.83
2023-04-17T02:42:43.559Z,13.50
2023-04-17T02:45:10.463Z,13.40
2023-04-17T02:47:36.941Z,12.80
2023-04-17T02:50:03.588Z,12.63
2023-04-17T02:52:30.960Z,13.00
2023-04-17T02:54:57.235Z,12.53
2023-04-17T02:57:23.799Z,13.37
2023-04-17T02:59:50.367Z,12.87
2023-04-17T03:02:21.770Z,12.80
2023-04-17T03:04:49.226Z,12.70
2023-04-17T03:07:18.529Z,12.77
2023-04-17T03:09:46.952Z,12.40
2023-04-17T03:12:14.347Z,13.50
2023-04-17T03:14:41.146Z,12.97
2023-04-17T03:17:07.721Z,12.63
2023-04-17T03:19:33.995Z,13.40
2023-04-17T03:22:01.678Z,12.33
2023-04-17T03:24:28.168Z,13.10
2023-04-17T03:26:54.499Z,12.70
2023-04-17T03:29:25.805Z,13.90
2023-04-17T03:31:52.283Z,13.07
2023-04-17T03:34:19.356Z,13.60
2023-04-17T03:36:45.679Z,12.93
2023-04-17T03:39:12.165Z,13.53
2023-04-17T03:41:38.775Z,13.30
2023-04-17T03:44:05.387Z,13.37
2023-04-17T03:46:31.706Z,14.33
2023-04-17T03:48:58.010Z,14.43
2023-04-17T03:51:24.431Z,14.50
2023-04-17T03:53:50.692Z,13.70
2023-04-17T03:56:17.210Z,14.40
2023-04-17T03:58:43.520Z,13.97
2023-04-17T04:01:10.956Z,14.17
2023-04-17T04:03:37.630Z,13.70
2023-04-17T04:06:04.053Z,13.63
2023-04-17T04:08:30.399Z,14.23
2023-04-17T04:10:56.781Z,13.70
2023-04-17T04:13:23.065Z,14.27
2023-04-17T04:15:49.398Z,15.73
2023-04-17T04:18:17.263Z,15.27
2023-04-17T04:20:43.875Z,15.17
2023-04-17T04:23:10.169Z,14.30
2023-04-17T04:25:36.684Z,14.80
2023-04-17T04:28:03.115Z,15.27
2023-04-17T04:30:35.876Z,14.67
2023-04-17T04:33:08.330Z,15.37
2023-04-17T04:35:35.506Z,14.83
2023-04-17T04:38:02.163Z,16.03
2023-04-17T04:40:30.602Z,16.37
2023-04-17T04:42:57.079Z,15.00
2023-04-17T04:45:23.380Z,15.13
2023-04-17T04:47:49.692Z,15.87
2023-04-17T04:50:16.433Z,15.63
2023-04-17T04:52:42.752Z,15.57
2023-04-17T04:55:09.158Z,16.27
2023-04-17T04:57:36.327Z,15.87
2023-04-17T05:00:06.235Z,16.40
2023-04-17T05:02:32.685Z,16.23
2023-04-17T05:04:59.083Z,15.90
2023-04-17T05:07:25.955Z,17.23
2023-04-17T05:09:52.217Z,16.70
2023-04-17T05:12:18.445Z,16.47
2023-04-17T05:14:44.891Z,17.47
2023-04-17T05:17:11.119Z,16.30
2023-04-17T05:19:37.352Z,17.17
2023-04-17T05:22:03.608Z,17.10
2023-04-17T05:24:29.964Z,16.57
2023-04-17T05:26:57.064Z,17.03
2023-04-17T05:29:25.133Z,17.63
2023-04-17T05:31:51.636Z,17.73
2023-04-17T05:34:17.918Z,17.80
2023-04-17T05:36:44.178Z,18.20
2023-04-17T05:39:10.702Z,17.73
2023-04-17T05:41:37.159Z,18.23
2023-04-17T05:44:03.403Z,18.50
2023-04-17T05:46:29.802Z,18.57
2023-04-17T05:48:56.186Z,17.77
2023-04-17T05:51:22.716Z,18.00
2023-04-17T05:53:49.036Z,18.77
2023-04-17T05:56:15.453Z,18.17
2023-04-17T05:58:41.709Z,18.90
2023-04-17T06:01:09.130Z,18.43
2023-04-17T06:03:35.775Z,19.20
2023-04-17T06:06:02.517Z,18.97
2023-04-17T06:08:28.936Z,18.37
2023-04-17T06:10:56.256Z,19.67
2023-04-17T06:13:23.524Z,18.57
2023-04-17T06:15:50.154Z,17.53
2023-04-17T06:18:17.521Z,19.13
2023-04-17T06:20:44.593Z,18.10
2023-04-17T06:23:10.861Z,18.40
2023-04-17T06:25:37.396Z,18.03
2023-04-17T06:28:03.872Z,19.07
2023-04-17T06:30:30.129Z,19.07
2023-04-17T06:32:56.436Z,18.40
2023-04-17T06:35:22.785Z,18.77
2023-04-17T06:37:49.033Z,18.83
2023-04-17T06:40:15.492Z,19.10
2023-04-17T06:42:41.856Z,20.60
2023-04-17T06:45:08.298Z,19.20
2023-04-17T06:47:34.582Z,19.17
2023-04-17T06:50:00.898Z,20.13
2023-04-17T06:52:27.225Z,19.73
2023-04-17T06:54:56.511Z,19.67
2023-04-17T06:57:22.813Z,20.93
2023-04-17T06:59:49.104Z,20.57
2023-04-17T07:02:15.498Z,20.77
2023-04-17T07:04:41.955Z,20.43
2023-04-17T07:07:08.343Z,19.37
2023-04-17T07:09:34.593Z,20.10
2023-04-17T07:12:00.843Z,19.70
2023-04-17T07:14:27.393Z,20.20
2023-04-17T07:16:53.676Z,19.87
2023-04-17T07:19:19.931Z,20.13
2023-04-17T07:21:46.344Z,17.93
2023-04-17T07:24:12.596Z,18.67
2023-04-17T07:26:40.359Z,17.77
2023-04-17T07:29:06.697Z,18.73
2023-04-17T07:31:33.280Z,17.90
2023-04-17T07:34:00.611Z,18.07
2023-04-17T07:36:28.626Z,16.97
2023-04-17T07:38:54.855Z,17.77
2023-04-17T07:41:21.106Z,17.90
2023-04-17T07:43:47.399Z,18.20
2023-04-17T07:46:13.795Z,17.73
2023-04-17T07:48:40.400Z,18.27
2023-04-17T07:51:07.634Z,18.73
2023-04-17T07:53:35.981Z,18.17
2023-04-17T07:56:02.224Z,18.47
2023-04-17T07:58:35.696Z,19.23
2023-04-17T08:01:05.690Z,18.47
2023-04-17T08:03:32.363Z,17.97
2023-04-17T08:05:58.878Z,18.03
2023-04-17T08:08:25.644Z,17.50
2023-04-17T08:10:52.251Z,18.87
2023-04-17T08:13:18.794Z,18.23
2023-04-17T08:15:45.831Z,17.80
2023-04-17T08:18:12.199Z,17.83
2023-04-17T08:20:38.734Z,17.27
2023-04-17T08:23:06.021Z,17.63
2023-04-17T08:25:32.323Z,18.83
2023-04-17T08:27:58.688Z,18.33
2023-04-17T08:30:24.985Z,18.33
2023-04-17T08:32:52.634Z,18.27
2023-04-17T08:35:19.014Z,17.40
2023-04-17T08:37:48.268Z,17.30
2023-04-17T08:40:15.305Z,17.87
2023-04-17T08:42:42.341Z,17.50
2023-04-17T08:45:12.333Z,17.13
2023-04-17T08:47:39.352Z,16.63
2023-04-17T08:50:18.606Z,17.30
2023-04-17T08:52:46.130Z,15.83
2023-04-17T08:55:14.001Z,15.93
2023-04-17T08:58:01.070Z,16.90
2023-04-17T09:00:34.438Z,16.40
2023-04-17T09:03:01.939Z,15.83
2023-04-17T09:05:30.442Z,15.00
2023-04-17T09:08:06.430Z,16.20
2023-04-17T09:10:39.573Z,16.03
2023-04-17T09:13:06.241Z,15.17
2023-04-17T09:15:33.636Z,15.47
2023-04-17T09:18:00.159Z,15.00
2023-04-17T09:20:26.585Z,14.73
2023-04-17T09:23:01.126Z,14.70
2023-04-17T09:25:28.351Z,15.33
2023-04-17T09:27:55.898Z,15.40
2023-04-17T09:30:24.488Z,15.13
2023-04-17T09:33:02.991Z,14.43
2023-04-17T09:35:30.542Z,15.10
2023-04-17T09:37:59.978Z,16.07
2023-04-17T09:40:28.727Z,15.53
2023-04-17T09:43:03.500Z,15.90
2023-04-17T09:45:35.561Z,15.50
2023-04-17T09:48:09.075Z,15.53
2023-04-17T09:50:37.326Z,14.40
2023-04-17T09:53:05.218Z,14.27
2023-04-17T09:55:31.612Z,13.87
2023-04-17T09:57:58.674Z,13.67
2023-04-17T10:00:27.651Z,12.70
2023-04-17T10:02:54.834Z,12.40
2023-04-17T10:05:22.019Z,12.17
2023-04-17T10:07:48.651Z,12.30
2023-04-17T10:10:22.070Z,11.83
2023-04-17T10:12:48.888Z,11.90
2023-04-17T10:15:15.893Z,12.07
2023-04-17T10:17:42.448Z,12.07
2023-04-17T10:20:31.669Z,11.30
2023-04-17T10:22:57.964Z,11.63
2023-04-17T10:25:25.691Z,11.57
2023-04-17T10:27:53.539Z,12.10
2023-04-17T10:30:22.554Z,11.60
2023-04-17T10:33:09.681Z,12.03
2023-04-17T10:35:36.915Z,11.67
2023-04-17T10:38:04.443Z,12.00
2023-04-17T10:40:31.303Z,12.40
2023-04-17T10:43:20.486Z,12.07
2023-04-17T10:45:52.813Z,12.30
2023-04-17T10:48:19.664Z,11.33
2023-04-17T10:50:47.248Z,12.27
2023-04-17T10:53:32.261Z,11.47
2023-04-17T10:55:58.538Z,12.73
2023-04-17T10:58:31.515Z,11.83
2023-04-17T11:01:02.298Z,12.23
2023-04-17T11:03:29.652Z,11.67
2023-04-17T11:05:56.046Z,11.13
2023-04-17T11:08:23.573Z,11.57
2023-04-17T11:10:54.179Z,10.80
2023-04-17T11:13:20.545Z,11.47
2023-04-17T11:15:46.896Z,11.17
2023-04-17T11:18:13.320Z,10.97
2023-04-17T11:20:40.835Z,11.80
2023-04-17T11:23:07.128Z,10.17
2023-04-17T11:25:34.578Z,9.60
2023-04-17T11:28:02.181Z,10.80
2023-04-17T11:30:28.548Z,10.00
2023-04-17T11:32:58.492Z,11.03
2023-04-17T11:35:29.200Z,11.00
2023-04-17T11:38:14.475Z,11.37
2023-04-17T11:40:45.255Z,11.53
2023-04-17T11:43:12.148Z,11.87
2023-04-17T11:45:39.717Z,12.47
2023-04-17T11:48:08.253Z,12.40
2023-04-17T11:50:35.184Z,12.50
2023-04-17T11:53:02.728Z,12.63
2023-04-17T11:55:31.399Z,12.43
2023-04-17T11:57:58.438Z,12.40
2023-04-17T12:00:29.171Z,12.43
2023-04-17T12:02:56.606Z,11.73
2023-04-17T12:05:23.985Z,12.33
2023-04-17T12:08:07.239Z,12.23
2023-04-17T12:10:40.138Z,12.23
2023-04-17T12:13:06.534Z,12.90
2023-04-17T12:15:33.157Z,12.50
2023-04-17T12:17:59.622Z,11.87
2023-04-17T12:20:26.849Z,12.80
2023-04-17T12:22:53.266Z,11.93
2023-04-17T12:25:19.543Z,12.40
2023-04-17T12:27:47.460Z,11.87
2023-04-17T12:30:15.334Z,12.33
2023-04-17T12:32:42.792Z,11.93
2023-04-17T12:35:09.332Z,11.70
2023-04-17T12:37:35.606Z,11.37
2023-04-17T12:40:02.040Z,12.25
2023-04-17T12:42:31.459Z,13.40
2023-04-17T12:45:00.219Z,12.67
2023-04-17T12:47:26.608Z,12.87
2023-04-17T12:49:52.914Z,12.60
2023-04-17T12:52:19.256Z,12.10
2023-04-17T12:54:45.565Z,12.07
2023-04-17T12:57:11.880Z,12.40
2023-04-17T12:59:39.605Z,12.23
2023-04-17T13:02:06.069Z,12.20
2023-04-17T13:04:32.930Z,11.60
2023-04-17T13:06:59.294Z,11.97
2023-04-17T13:09:25.604Z,12.03
2023-04-17T13:11:51.909Z,10.40
2023-04-17T13:14:18.196Z,11.03
2023-04-17T13:16:45.648Z,11.60
2023-04-17T13:19:12.289Z,10.70
2023-04-17T13:21:38.794Z,11.13
2023-04-17T13:24:05.452Z,10.93
2023-04-17T13:26:31.749Z,10.97
2023-04-17T13:28:58.052Z,11.43
2023-04-17T13:31:26.657Z,11.93
2023-04-17T13:33:53.047Z,12.30
2023-04-17T13:36:19.282Z,12.17
2023-04-17T13:38:45.579Z,12.17
2023-04-17T13:41:11.905Z,13.60
2023-04-17T13:43:39.018Z,14.97
2023-04-17T13:46:05.323Z,14.43
2023-04-17T13:48:31.667Z,14.47
2023-04-17T13:50:57.919Z,14.67
2023-04-17T13:53:24.234Z,15.13
2023-04-17T13:55:51.161Z,15.03
2023-04-17T13:58:17.397Z,15.97
2023-04-17T14:00:43.638Z,15.07
2023-04-17T14:03:10.043Z,16.60
2023-04-17T14:05:36.503Z,16.03
2023-04-17T14:08:02.809Z,16.20
2023-04-17T14:10:29.053Z,16.90
2023-04-17T14:12:55.328Z,17.37
2023-04-17T14:15:21.583Z,17.97
2023-04-17T14:17:47.937Z,17.43
2023-04-17T14:20:16.766Z,17.27
2023-04-17T14:22:43.057Z,17.47
2023-04-17T14:25:09.483Z,18.37
2023-04-17T14:27:36.380Z,17.43
2023-04-17T14:30:02.784Z,17.57
2023-04-17T14:32:29.300Z,17.40
2023-04-17T14:34:55.617Z,17.90
2023-04-17T14:37:21.946Z,18.33
2023-04-17T14:39:48.269Z,15.53
2023-04-17T14:42:14.612Z,16.03
2023-04-17T14:44:43.248Z,15.20
2023-04-17T14:47:10.002Z,14.63
2023-04-17T14:49:36.604Z,15.87
2023-04-17T14:52:02.891Z,16.17
2023-04-17T14:54:29.219Z,14.83
2023-04-17T14:56:56.240Z,15.73
2023-04-17T14:59:22.514Z,15.83
2023-04-17T15:01:49.008Z,15.07
2023-04-17T15:04:15.554Z,15.60
2023-04-17T15:06:42.905Z,16.00
2023-04-17T15:09:09.431Z,16.07
2023-04-17T15:11:36.253Z,15.33
2023-04-17T15:14:02.619Z,15.40
2023-04-17T15:16:30.007Z,15.20
2023-04-17T15:18:56.266Z,13.97
2023-04-17T15:21:22.512Z,15.00
2023-04-17T15:23:48.827Z,14.47
2023-04-17T15:26:15.144Z,15.53
2023-04-17T15:28:41.457Z,14.97
2023-04-17T15:31:08.021Z,13.43
2023-04-17T15:33:34.283Z,13.33
2023-04-17T15:36:00.840Z,13.17
2023-04-17T15:38:27.431Z,13.10
2023-04-17T15:40:53.802Z,12.87
2023-04-17T15:43:20.132Z,12.93
2023-04-17T15:45:49.607Z,13.47
2023-04-17T15:48:15.950Z,13.53
2023-04-17T15:50:42.428Z,13.10
2023-04-17T15:53:09.036Z,13.40
2023-04-17T15:55:36.786Z,12.93
2023-04-17T15:58:03.258Z,13.20
2023-04-17T16:00:29.782Z,12.67
2023-04-17T16:02:56.263Z,12.27
2023-04-17T16:05:22.555Z,13.17
2023-04-17T16:07:48.793Z,13.27
2023-04-17T16:10:15.505Z,14.10
2023-04-17T16:12:43.170Z,14.47
2023-04-17T16:15:13.463Z,13.60
2023-04-17T16:17:40.271Z,14.10
2023-04-17T16:20:06.866Z,13.30
2023-04-17T16:22:33.134Z,13.13
2023-04-17T16:24:59.455Z,12.27
2023-04-17T16:27:26.033Z,12.20
2023-04-17T16:29:52.470Z,11.77
2023-04-17T16:32:19.816Z,10.47
2023-04-17T16:34:47.015Z,11.13
2023-04-17T16:37:14.813Z,12.00
2023-04-17T16:39:41.127Z,11.40
2023-04-17T16:42:07.436Z,11.57
2023-04-17T16:44:33.708Z,11.57
2023-04-17T16:47:12.602Z,11.50
2023-04-17T16:49:40.869Z,11.47
2023-04-17T16:52:07.138Z,10.73
2023-04-17T16:54:33.404Z,10.90
2023-04-17T16:56:59.692Z,11.13
2023-04-17T16:59:26.061Z,10.90
2023-04-17T17:01:52.684Z,11.10
2023-04-17T17:04:19.091Z,12.00
2023-04-17T17:06:45.402Z,12.23
2023-04-17T17:09:11.886Z,12.07
2023-04-17T17:11:38.219Z,12.23
2023-04-17T17:14:04.465Z,12.47
2023-04-17T17:16:30.829Z,12.53
2023-04-17T17:18:57.200Z,13.23
2023-04-17T17:21:23.464Z,13.57
2023-04-17T17:23:49.703Z,13.03
2023-04-17T17:26:17.200Z,13.70
2023-04-17T17:28:44.180Z,13.30
2023-04-17T17:31:10.464Z,12.73
2023-04-17T17:33:37.275Z,13.03
2023-04-17T17:36:03.741Z,12.73
2023-04-17T17:38:32.352Z,12.10
2023-04-17T17:40:58.792Z,12.33
2023-04-17T17:43:25.077Z,12.53
2023-04-17T17:45:52.151Z,12.93
2023-04-17T17:48:20.352Z,13.93
2023-04-17T17:50:47.034Z,12.17
2023-04-17T17:53:13.363Z,12.63
2023-04-17T17:55:39.924Z,12.70
2023-04-17T17:58:07.354Z,12.87
2023-04-17T18:00:33.758Z,14.32
2023-04-17T18:03:00.348Z,13.67
2023-04-17T18:05:27.109Z,13.47
2023-04-17T18:07:53.470Z,13.53
2023-04-17T18:10:19.714Z,12.40
2023-04-17T18:12:46.194Z,11.60
2023-04-17T18:15:12.486Z,12.33
2023-04-17T18:17:38.785Z,13.00
2023-04-17T18:20:05.272Z,12.57
2023-04-17T18:22:31.585Z,13.33
2023-04-17T18:24:57.812Z,12.67
2023-04-17T18:27:24.051Z,12.87
2023-04-17T18:29:50.416Z,12.37
2023-04-17T18:32:16.755Z,11.53
2023-04-17T18:34:44.098Z,13.17
2023-04-17T18:37:10.446Z,12.67
2023-04-17T18:39:36.713Z,13.10
2023-04-17T18:42:03.067Z,12.63
2023-04-17T18:44:29.353Z,13.53
2023-04-17T18:46:55.632Z,14.40
2023-04-17T18:49:21.908Z,13.77
2023-04-17T18:51:48.191Z,13.03
2023-04-17T18:54:15.812Z,13.37
2023-04-17T18:56:42.322Z,13.77
2023-04-17T18:59:08.892Z,13.00
2023-04-17T19:01:35.314Z,13.73
2023-04-17T19:04:02.603Z,14.27
2023-04-17T19:06:29.068Z,14.33
2023-04-17T19:08:56.862Z,13.90
2023-04-17T19:11:23.661Z,14.00
2023-04-17T19:13:50.017Z,14.47
2023-04-17T19:16:16.431Z,14.53
2023-04-17T19:18:42.717Z,14.23
2023-04-17T19:21:09.027Z,14.63
2023-04-17T19:23:36.209Z,14.27
2023-04-17T19:26:02.506Z,14.80
2023-04-17T19:28:28.904Z,13.30
2023-04-17T19:30:56.072Z,14.83
2023-04-17T19:33:22.999Z,14.27
2023-04-17T19:35:49.962Z,13.60
2023-04-17T19:38:17.354Z,14.60
2023-04-17T19:40:46.761Z,14.40
2023-04-17T19:43:13.038Z,14.10
2023-04-17T19:45:39.461Z,14.73
2023-04-17T19:48:06.025Z,13.60
2023-04-17T19:50:32.488Z,13.47
2023-04-17T19:52:58.912Z,13.47
2023-04-17T19:55:25.183Z,13.53
2023-04-17T19:57:52.244Z,14.47
2023-04-17T20:00:18.662Z,14.33
2023-04-17T20:02:45.067Z,14.43
2023-04-17T20:05:11.504Z,14.93
2023-04-17T20:07:37.801Z,14.80
2023-04-17T20:10:04.788Z,13.63
2023-04-17T20:12:31.040Z,14.37
2023-04-17T20:14:57.331Z,14.40
2023-04-17T20:17:23.704Z,14.33
2023-04-17T20:19:49.971Z,15.13
2023-04-17T20:22:16.319Z,14.97
2023-04-17T20:24:42.598Z,14.40
2023-04-17T20:27:08.864Z,14.20
2023-04-17T20:29:35.271Z,14.67
2023-04-17T20:32:03.657Z,14.60
2023-04-17T20:34:34.859Z,14.60
2023-04-17T20:37:01.919Z,14.03
2023-04-17T20:39:28.940Z,14.10
2023-04-17T20:41:55.305Z,13.97
2023-04-17T20:44:22.130Z,13.43
2023-04-17T20:46:48.459Z,14.83
2023-04-17T20:49:14.832Z,13.57
2023-04-17T20:51:41.229Z,13.77
2023-04-17T20:54:07.484Z,13.50
2023-04-17T20:56:33.735Z,13.73
2023-04-17T20:59:00.026Z,12.77
2023-04-17T21:01:26.998Z,13.87
2023-04-17T21:03:53.461Z,13.43
2023-04-17T21:06:22.221Z,14.03
2023-04-17T21:08:48.549Z,14.47
2023-04-17T21:11:15.042Z,13.87
2023-04-17T21:13:41.390Z,13.50
2023-04-17T21:16:10.061Z,14.60
2023-04-17T21:18:36.306Z,13.47
2023-04-17T21:21:02.798Z,14.37
2023-04-17T21:23:29.083Z,14.07
2023-04-17T21:25:55.619Z,13.40
2023-04-17T21:28:22.009Z,13.93
2023-04-17T21:30:48.279Z,13.17
2023-04-17T21:33:14.674Z,13.57
2023-04-17T21:35:40.922Z,13.80
2023-04-17T21:38:07.241Z,13.30
2023-04-17T21:40:33.845Z,13.23
2023-04-17T21:43:01.048Z,13.33
2023-04-17T21:45:27.316Z,14.10
2023-04-17T21:47:53.636Z,13.57
2023-04-17T21:50:19.998Z,12.83
2023-04-17T21:52:46.241Z,13.77
2023-04-17T21:55:12.561Z,13.33
2023-04-17T21:57:38.958Z,13.63
2023-04-17T22:00:05.696Z,13.10
2023-04-17T22:02:32.051Z,14.00
2023-04-17T22:04:58.408Z,14.23
2023-04-17T22:07:24.736Z,13.50
2023-04-17T22:09:51.027Z,13.57
2023-04-17T22:12:23.452Z,13.97
2023-04-17T22:14:49.740Z,12.83
2023-04-17T22:17:16.015Z,12.67
2023-04-17T22:19:42.362Z,14.03
2023-04-17T22:22:08.636Z,13.20
2023-04-17T22:24:35.851Z,13.67
2023-04-17T22:27:02.140Z,12.77
2023-04-17T22:29:28.395Z,13.13
2023-04-17T22:31:54.665Z,13.23
2023-04-17T22:34:20.921Z,13.27
2023-04-17T22:36:47.289Z,12.90
2023-04-17T22:39:13.537Z,13.67
2023-04-17T22:41:39.898Z,14.03
2023-04-17T22:44:07.023Z,13.83
2023-04-17T22:46:33.363Z,13.53
2023-04-17T22:49:00.783Z,12.80
2023-04-17T22:51:29.495Z,12.53
2023-04-17T22:53:55.883Z,12.77
2023-04-17T22:56:22.858Z,12.97
2023-04-17T22:58:54.392Z,13.03
2023-04-17T23:01:21.010Z,12.60
2023-04-17T23:03:47.326Z,12.50
2023-04-17T23:06:13.618Z,12.03
2023-04-17T23:08:39.931Z,12.67
2023-04-17T23:11:06.202Z,12.37
2023-04-17T23:13:32.509Z,12.37
2023-04-17T23:15:58.864Z,12.43
2023-04-17T23:18:25.153Z,12.17
2023-04-17T23:20:51.431Z,12.77
2023-04-17T23:23:20.626Z,12.83
2023-04-17T23:25:47.028Z,12.47
2023-04-17T23:28:13.945Z,12.73
2023-04-17T23:30:40.510Z,13.50
2023-04-17T23:33:06.923Z,12.53
2023-04-17T23:35:33.269Z,12.30
2023-04-17T23:37:59.526Z,12.50
2023-04-17T23:40:27.411Z,12.63
2023-04-17T23:42:54.297Z,14.17
2023-04-17T23:45:20.718Z,12.50
2023-04-17T23:47:47.013Z,13.43
2023-04-17T23:50:13.619Z,12.53
2023-04-17T23:52:41.002Z,12.43
2023-04-17T23:55:08.007Z,12.70
2023-04-17T23:57:35.490Z,13.67
